Time;durP1;ratioP1;P1;durP2;ratioP2;P2;SDS_P1;SDS_P2;PMS_P1;PMS_P2;Temp;Humidity;BMP_temperature;BMP_pressure;BME280_temperature;BME280_humidity;BME280_pressure;Samples;Min_cycle;Max_cycle;Signal;HPM_P1;HPM_P2
2022/01/15 00:00:27;;;;;;;100.00;8.82;;;1.40;98.90;;;;;;5025506;28;20053;-86
2022/01/15 00:02:53;;;;;;;64.25;7.13;;;1.40;98.90;;;;;;5027307;28;20022;-86
2022/01/15 00:05:19;;;;;;;86.00;7.20;;;1.30;98.90;;;;;;5028169;28;20034;-86
2022/01/15 00:07:47;;;;;;;61.85;6.93;;;1.30;98.90;;;;;;5028250;28;20026;-86
2022/01/15 00:10:13;;;;;;;94.97;7.60;;;1.30;99.00;;;;;;5030668;28;20089;-86
2022/01/15 00:12:40;;;;;;;57.97;6.80;;;1.30;98.90;;;;;;5029134;28;20026;-86
2022/01/15 00:15:14;;;;;;;75.32;7.25;;;1.20;98.90;;;;;;5014955;28;20116;-86
2022/01/15 00:17:55;;;;;;;128.75;8.45;;;1.20;98.90;;;;;;5023721;28;20046;-86
2022/01/15 00:20:21;;;;;;;43.22;5.53;;;1.20;98.90;;;;;;5027253;28;20044;-86
2022/01/15 00:22:48;;;;;;;96.63;7.90;;;1.20;98.90;;;;;;5029122;28;20021;-86
2022/01/15 00:25:14;;;;;;;117.57;8.30;;;1.20;98.90;;;;;;5027426;28;20056;-86
2022/01/15 00:27:40;;;;;;;98.50;9.20;;;1.30;99.00;;;;;;5014942;28;20025;-86
2022/01/15 00:30:07;;;;;;;74.28;8.75;;;1.30;99.00;;;;;;5026943;28;20803;-86
2022/01/15 00:32:32;;;;;;;73.15;7.88;;;1.20;99.00;;;;;;5028962;28;20033;-86
2022/01/15 00:35:00;;;;;;;57.47;7.95;;;1.20;99.00;;;;;;5020344;28;20466;-86
2022/01/15 00:37:26;;;;;;;101.75;8.27;;;1.20;99.00;;;;;;5023817;28;20030;-86
2022/01/15 00:39:52;;;;;;;84.40;7.55;;;1.20;99.00;;;;;;5028088;28;20095;-86
2022/01/15 00:42:18;;;;;;;65.75;8.75;;;1.10;99.00;;;;;;5022393;28;20045;-86
2022/01/15 00:44:48;;;;;;;63.60;8.35;;;1.10;99.00;;;;;;5039242;28;20110;-87
2022/01/15 00:47:14;;;;;;;67.70;8.05;;;1.00;98.90;;;;;;5021861;28;20087;-86
2022/01/15 00:49:40;;;;;;;88.10;7.63;;;1.00;98.90;;;;;;5027063;28;20042;-86
2022/01/15 00:52:05;;;;;;;73.05;8.50;;;0.90;98.90;;;;;;5023531;28;20502;-86
2022/01/15 00:54:31;;;;;;;83.88;8.55;;;0.90;98.90;;;;;;5021096;28;20076;-87
2022/01/15 00:56:56;;;;;;;57.08;7.47;;;0.80;98.90;;;;;;5023432;28;20120;-86
2022/01/15 00:59:22;;;;;;;52.17;6.68;;;0.80;98.90;;;;;;5027252;28;20033;-86
2022/01/15 01:01:47;;;;;;;61.20;7.28;;;0.70;98.90;;;;;;5023431;28;20099;-86
2022/01/15 01:04:13;;;;;;;56.40;7.32;;;0.70;98.90;;;;;;5027776;28;20022;-86
2022/01/15 01:06:38;;;;;;;41.80;6.88;;;0.60;98.90;;;;;;5027815;28;20037;-86
2022/01/15 01:09:04;;;;;;;70.63;8.35;;;0.60;98.90;;;;;;5024495;28;20036;-86
2022/01/15 01:11:42;;;;;;;86.55;8.25;;;0.60;98.90;;;;;;5025776;28;20035;-86
2022/01/15 01:24:47;;;;;;;67.55;8.43;;;0.60;99.00;;;;;;5014958;28;20127;-86
2022/01/15 01:27:20;;;;;;;79.68;8.63;;;0.60;99.00;;;;;;5019880;28;20033;-86
2022/01/15 01:30:07;;;;;;;87.32;8.45;;;0.60;99.00;;;;;;5025087;28;20028;-86
2022/01/15 01:32:45;;;;;;;77.50;9.32;;;0.60;99.00;;;;;;5022841;28;20030;-86
2022/01/15 01:35:16;;;;;;;112.53;8.45;;;0.70;99.00;;;;;;5026982;28;20026;-86
2022/01/15 01:37:48;;;;;;;94.43;7.60;;;0.70;99.00;;;;;;5026022;28;20044;-86
2022/01/15 01:40:19;;;;;;;83.25;7.72;;;0.70;99.00;;;;;;5026535;28;20033;-86
2022/01/15 01:45:45;;;;;;;82.03;8.10;;;0.70;99.00;;;;;;5017070;28;20452;-86
2022/01/15 01:48:11;;;;;;;90.75;8.18;;;0.70;99.00;;;;;;5021057;28;20032;-86
2022/01/15 01:50:36;;;;;;;89.25;8.38;;;0.70;99.00;;;;;;5017022;28;20046;-86
2022/01/15 01:53:02;;;;;;;82.85;7.80;;;0.70;99.00;;;;;;5019711;28;20026;-86
2022/01/15 01:55:28;;;;;;;90.32;7.13;;;0.80;99.00;;;;;;5023725;28;20116;-86
2022/01/15 01:57:56;;;;;;;91.50;7.72;;;0.70;99.00;;;;;;5025382;28;20029;-86
2022/01/15 02:00:23;;;;;;;112.40;9.20;;;0.80;99.00;;;;;;5021574;28;20442;-86
2022/01/15 02:02:50;;;;;;;107.75;8.80;;;0.80;99.00;;;;;;5026702;28;20120;-86
2022/01/15 02:05:16;;;;;;;100.88;8.45;;;0.70;99.00;;;;;;5018308;28;20028;-86
2022/01/15 02:07:43;;;;;;;92.18;7.90;;;0.80;99.00;;;;;;5018149;28;20112;-86
2022/01/15 02:10:14;;;;;;;104.32;8.15;;;0.80;99.00;;;;;;5027730;28;20422;-86
2022/01/15 02:12:41;;;;;;;97.78;8.05;;;0.80;99.00;;;;;;5026048;28;20030;-86
2022/01/15 02:15:19;;;;;;;124.70;9.13;;;0.90;99.00;;;;;;5025968;28;20379;-86
2022/01/15 02:17:47;;;;;;;114.22;9.13;;;0.90;99.00;;;;;;5018905;28;20033;-86
2022/01/15 02:26:04;;;;;;;177.98;10.90;;;0.90;99.00;;;;;;5030356;28;20099;-86
2022/01/15 02:28:33;;;;;;;97.25;9.70;;;1.00;99.00;;;;;;5028290;28;20394;-86
2022/01/15 02:31:02;;;;;;;133.40;10.65;;;1.00;99.00;;;;;;5024815;28;20397;-86
2022/01/15 02:33:28;;;;;;;115.93;9.05;;;0.90;99.00;;;;;;5031361;28;20029;-86
2022/01/15 02:35:53;;;;;;;84.47;8.45;;;1.00;99.00;;;;;;5019588;28;20397;-86
2022/01/15 02:38:20;;;;;;;106.00;9.50;;;1.00;99.00;;;;;;5031865;28;20112;-86
2022/01/15 02:40:46;;;;;;;103.40;9.20;;;1.00;99.00;;;;;;5032309;28;20026;-86
2022/01/15 02:43:15;;;;;;;86.97;8.52;;;1.00;99.00;;;;;;5023381;28;20029;-86
2022/01/15 02:45:44;;;;;;;81.25;9.13;;;1.10;99.00;;;;;;5028322;28;20029;-86
2022/01/15 02:48:14;;;;;;;113.28;10.00;;;1.10;99.00;;;;;;5019499;28;20040;-86
2022/01/15 02:50:41;;;;;;;87.18;9.95;;;1.10;99.00;;;;;;5018671;28;20378;-86
2022/01/15 02:53:08;;;;;;;94.65;9.65;;;1.10;99.00;;;;;;5047108;28;20087;-86
2022/01/15 02:55:34;;;;;;;44.92;7.85;;;1.20;99.00;;;;;;5024983;28;20025;-86
2022/01/15 02:57:59;;;;;;;59.45;9.05;;;1.20;99.10;;;;;;5028066;28;20120;-86
2022/01/15 03:00:26;;;;;;;52.38;8.95;;;1.30;99.10;;;;;;5016651;28;20478;-86
2022/01/15 03:02:52;;;;;;;62.30;9.27;;;1.30;99.10;;;;;;5018603;28;20026;-87
2022/01/15 03:05:20;;;;;;;55.30;8.45;;;1.30;99.10;;;;;;5028234;28;20025;-86
2022/01/15 03:07:45;;;;;;;51.83;9.07;;;1.30;99.10;;;;;;5029015;28;20021;-86
2022/01/15 03:10:11;;;;;;;47.70;8.82;;;1.30;99.10;;;;;;5027710;28;20412;-86
2022/01/15 03:12:37;;;;;;;51.42;8.50;;;1.30;99.00;;;;;;5030646;28;20056;-86
2022/01/15 03:15:06;;;;;;;53.80;8.68;;;1.30;99.00;;;;;;5018296;28;20458;-86
2022/01/15 03:17:32;;;;;;;51.85;8.60;;;1.30;99.00;;;;;;5030818;28;20029;-86
2022/01/15 03:19:58;;;;;;;59.35;8.93;;;1.30;99.00;;;;;;5029584;28;20183;-86
2022/01/15 03:22:24;;;;;;;50.67;8.95;;;1.30;99.00;;;;;;5031367;28;20120;-86
2022/01/15 03:24:50;;;;;;;46.42;8.98;;;1.40;99.00;;;;;;5031537;28;20505;-86
2022/01/15 03:27:16;;;;;;;51.60;8.73;;;1.40;99.10;;;;;;5019642;28;20044;-86
2022/01/15 03:29:43;;;;;;;79.93;10.23;;;1.40;99.10;;;;;;5030833;28;20025;-86
2022/01/15 03:32:08;;;;;;;134.50;10.77;;;1.40;99.10;;;;;;5018117;28;20397;-86
2022/01/15 03:34:34;;;;;;;110.18;10.38;;;1.30;99.00;;;;;;5012821;28;20038;-86
2022/01/15 03:37:01;;;;;;;99.85;9.77;;;1.30;99.00;;;;;;5031525;28;20037;-86
2022/01/15 03:39:27;;;;;;;203.23;12.15;;;1.30;99.00;;;;;;5019349;28;20025;-86
2022/01/15 03:41:52;;;;;;;204.32;12.60;;;1.30;99.00;;;;;;5028426;28;20111;-86
2022/01/15 03:44:18;;;;;;;210.35;11.77;;;1.30;99.00;;;;;;5030547;28;20463;-86
2022/01/15 03:46:44;;;;;;;199.13;11.40;;;1.20;99.00;;;;;;5011673;28;20042;-86
2022/01/15 03:49:10;;;;;;;232.73;13.13;;;1.20;99.00;;;;;;5028466;28;20021;-86
2022/01/15 03:51:36;;;;;;;234.73;12.18;;;1.20;99.00;;;;;;5027797;28;20033;-86
2022/01/15 03:54:02;;;;;;;293.88;13.65;;;1.20;99.00;;;;;;5027824;28;20021;-86
2022/01/15 03:56:29;;;;;;;214.88;11.07;;;1.20;99.00;;;;;;5022776;28;20030;-86
2022/01/15 03:58:55;;;;;;;167.77;9.95;;;1.20;99.00;;;;;;5026010;28;20018;-86
2022/01/15 04:01:20;;;;;;;165.55;9.32;;;1.20;99.00;;;;;;5027886;28;20040;-86
2022/01/15 04:03:46;;;;;;;150.55;10.38;;;1.20;98.90;;;;;;5031284;28;20119;-86
2022/01/15 04:06:11;;;;;;;138.63;9.50;;;1.20;99.00;;;;;;5020706;28;20052;-86
2022/01/15 04:08:37;;;;;;;153.77;10.60;;;1.20;99.00;;;;;;5034227;28;20029;-86
2022/01/15 04:11:02;;;;;;;89.47;8.32;;;1.20;99.00;;;;;;5026810;28;20457;-86
2022/01/15 04:13:28;;;;;;;110.28;9.38;;;1.20;99.00;;;;;;5025558;28;20515;-86
2022/01/15 04:15:54;;;;;;;137.80;10.73;;;1.10;98.90;;;;;;5027388;28;20051;-86
2022/01/15 04:18:22;;;;;;;110.07;10.43;;;1.10;98.90;;;;;;5018471;28;20042;-86
2022/01/15 04:20:48;;;;;;;112.55;8.38;;;1.10;98.90;;;;;;5022158;28;20029;-86
2022/01/15 04:23:13;;;;;;;156.32;10.55;;;1.10;98.90;;;;;;5020447;28;20489;-86
2022/01/15 04:25:39;;;;;;;117.72;10.30;;;1.10;98.90;;;;;;5029329;28;20091;-86
2022/01/15 04:28:09;;;;;;;161.30;11.85;;;1.00;98.90;;;;;;5023591;28;20022;-86
2022/01/15 04:30:36;;;;;;;120.40;9.82;;;1.10;99.00;;;;;;5027089;28;20036;-86
2022/01/15 04:33:01;;;;;;;163.63;10.25;;;1.00;98.90;;;;;;5029274;28;20088;-86
2022/01/15 04:35:27;;;;;;;128.38;9.50;;;1.00;98.90;;;;;;5025977;28;20025;-86
2022/01/15 04:38:00;;;;;;;201.07;10.68;;;1.00;98.90;;;;;;5029379;28;20029;-86
2022/01/15 04:40:25;;;;;;;128.18;9.05;;;0.90;98.90;;;;;;5026355;28;20087;-86
2022/01/15 04:42:51;;;;;;;137.75;8.65;;;0.90;98.90;;;;;;5029936;28;20488;-86
2022/01/15 04:45:16;;;;;;;97.97;8.15;;;0.90;98.90;;;;;;5028241;28;20021;-86
2022/01/15 04:47:42;;;;;;;184.30;10.60;;;0.80;98.90;;;;;;5027399;28;20080;-86
2022/01/15 04:50:11;;;;;;;169.98;11.35;;;0.80;98.90;;;;;;5027698;28;20045;-86
2022/01/15 04:52:38;;;;;;;150.50;9.45;;;0.80;98.90;;;;;;5028065;28;20028;-86
2022/01/15 04:55:05;;;;;;;180.65;9.40;;;0.80;98.90;;;;;;5016001;28;20037;-86
2022/01/15 04:57:30;;;;;;;89.32;6.90;;;0.80;98.90;;;;;;5017084;28;20091;-86
2022/01/15 04:59:56;;;;;;;140.73;8.10;;;0.80;98.90;;;;;;5026639;28;20029;-86
2022/01/15 05:02:21;;;;;;;151.65;9.02;;;0.80;99.00;;;;;;5018406;28;20036;-86
2022/01/15 05:04:47;;;;;;;131.10;7.93;;;0.70;98.90;;;;;;5025335;28;20034;-86
2022/01/15 05:07:13;;;;;;;115.40;7.68;;;0.70;98.90;;;;;;5012093;28;20032;-86
2022/01/15 05:09:38;;;;;;;150.05;7.60;;;0.70;98.90;;;;;;5016275;28;20026;-86
2022/01/15 05:12:23;;;;;;;149.40;7.80;;;0.60;98.90;;;;;;5024101;28;20382;-86
2022/01/15 05:14:49;;;;;;;132.80;7.93;;;0.70;99.00;;;;;;5028876;28;20481;-86
2022/01/15 05:17:14;;;;;;;173.93;8.45;;;0.70;99.00;;;;;;5021666;28;20057;-86
2022/01/15 05:19:40;;;;;;;168.38;9.25;;;0.60;99.00;;;;;;5025334;28;20703;-86
2022/01/15 05:22:05;;;;;;;112.15;7.55;;;0.60;99.00;;;;;;5022057;28;20037;-86
2022/01/15 05:24:33;;;;;;;79.85;6.07;;;0.60;99.00;;;;;;5029964;28;20040;-86
2022/01/15 05:26:59;;;;;;;102.22;6.63;;;0.60;99.00;;;;;;5019289;28;20100;-86
2022/01/15 05:29:25;;;;;;;121.05;7.63;;;0.60;99.00;;;;;;5027359;28;20454;-86
2022/01/15 05:31:51;;;;;;;130.25;7.43;;;0.60;98.90;;;;;;5028525;28;20029;-86
2022/01/15 05:34:16;;;;;;;103.63;8.00;;;0.60;98.90;;;;;;5023391;28;20056;-86
2022/01/15 05:36:42;;;;;;;107.20;7.13;;;0.60;99.00;;;;;;5024967;28;20095;-85
2022/01/15 05:39:08;;;;;;;99.50;6.53;;;0.60;99.00;;;;;;5010977;28;20099;-85
2022/01/15 05:41:33;;;;;;;77.68;6.60;;;0.60;99.00;;;;;;5025021;28;20048;-85
2022/01/15 05:44:01;;;;;;;119.10;6.68;;;0.60;99.00;;;;;;5024403;28;20075;-85
2022/01/15 05:46:32;;;;;;;96.43;6.68;;;0.70;99.00;;;;;;5020577;28;20033;-85
2022/01/15 05:48:58;;;;;;;124.37;7.13;;;0.60;99.00;;;;;;5028728;28;20493;-85
2022/01/15 05:51:29;;;;;;;115.40;7.03;;;0.70;99.00;;;;;;5022168;28;20656;-85
2022/01/15 05:53:55;;;;;;;125.18;7.47;;;0.70;99.00;;;;;;5024889;28;20052;-85
2022/01/15 05:56:25;;;;;;;122.28;8.05;;;0.70;99.00;;;;;;5023483;28;20036;-87
2022/01/15 05:58:51;;;;;;;85.90;7.60;;;0.70;99.00;;;;;;5013727;28;20073;-86
2022/01/15 06:01:17;;;;;;;76.30;7.32;;;0.80;99.00;;;;;;5021688;28;20057;-86
2022/01/15 06:03:42;;;;;;;95.90;6.80;;;0.80;99.00;;;;;;5019986;28;20037;-85
2022/01/15 06:06:08;;;;;;;91.18;6.70;;;0.80;99.00;;;;;;5026998;28;20096;-85
2022/01/15 06:08:33;;;;;;;71.28;6.28;;;0.80;99.00;;;;;;5023160;28;20022;-85
2022/01/15 06:10:59;;;;;;;83.60;6.88;;;0.80;99.00;;;;;;5019667;28;20462;-85
2022/01/15 06:13:25;;;;;;;126.35;8.23;;;0.90;99.00;;;;;;5027682;28;20021;-85
2022/01/15 06:15:50;;;;;;;80.53;6.82;;;0.90;99.00;;;;;;5028168;28;20414;-85
2022/01/15 06:18:16;;;;;;;114.07;8.27;;;0.90;99.00;;;;;;5023850;28;20523;-86
2022/01/15 06:20:41;;;;;;;70.57;7.03;;;0.90;99.00;;;;;;5027309;28;20053;-86
2022/01/15 06:23:07;;;;;;;82.30;7.30;;;0.90;99.00;;;;;;5019178;28;20389;-85
2022/01/15 06:25:32;;;;;;;64.85;6.95;;;0.90;99.00;;;;;;5027565;28;20022;-85
2022/01/15 06:27:58;;;;;;;83.07;7.32;;;0.90;99.00;;;;;;5029746;28;20036;-85
2022/01/15 06:30:24;;;;;;;112.32;8.43;;;1.00;99.00;;;;;;5021316;28;20026;-85
2022/01/15 06:32:49;;;;;;;63.05;6.90;;;1.00;99.00;;;;;;5025534;28;20092;-85
2022/01/15 06:35:17;;;;;;;66.95;6.63;;;1.00;99.00;;;;;;5024285;28;20763;-85
2022/01/15 06:37:44;;;;;;;60.85;7.53;;;1.00;99.00;;;;;;5026738;28;20127;-86
2022/01/15 06:40:11;;;;;;;51.47;7.03;;;1.00;99.00;;;;;;5025137;28;20036;-87
2022/01/15 06:42:37;;;;;;;67.57;7.30;;;1.00;99.00;;;;;;5023376;28;20057;-87
2022/01/15 06:45:04;;;;;;;67.68;7.75;;;1.10;99.00;;;;;;5022486;28;20042;-87
2022/01/15 06:47:30;;;;;;;53.13;6.63;;;1.10;99.00;;;;;;5015005;28;20037;-87
2022/01/15 06:49:55;;;;;;;76.18;7.13;;;1.10;99.00;;;;;;5011692;28;20412;-87
2022/01/15 06:52:24;;;;;;;54.60;6.88;;;1.10;99.00;;;;;;5025429;28;20033;-87
2022/01/15 06:54:50;;;;;;;56.72;7.43;;;1.10;99.00;;;;;;5026108;28;20029;-86
2022/01/15 06:57:27;;;;;;;65.95;7.70;;;1.10;99.00;;;;;;5027093;28;20033;-86
2022/01/15 06:59:53;;;;;;;94.10;8.50;;;1.10;99.00;;;;;;5023123;28;20042;-85
2022/01/15 07:02:19;;;;;;;73.00;8.10;;;1.10;99.00;;;;;;5024060;28;20022;-87
2022/01/15 07:04:45;;;;;;;114.15;9.57;;;1.10;99.00;;;;;;5040404;28;20037;-87
2022/01/15 07:07:13;;;;;;;71.90;7.78;;;1.20;99.00;;;;;;5026937;28;20037;-86
2022/01/15 07:09:39;;;;;;;74.10;9.52;;;1.20;99.00;;;;;;5023016;28;20084;-87
2022/01/15 07:12:05;;;;;;;109.10;9.90;;;1.20;99.00;;;;;;5026548;28;20477;-86
2022/01/15 07:14:31;;;;;;;66.68;8.68;;;1.20;99.00;;;;;;5017947;28;20033;-85
2022/01/15 07:16:56;;;;;;;114.45;9.52;;;1.20;99.00;;;;;;5026953;28;20048;-85
2022/01/15 07:19:22;;;;;;;94.97;9.10;;;1.20;99.00;;;;;;5026093;28;20123;-85
2022/01/15 07:21:47;;;;;;;79.07;9.25;;;1.10;98.90;;;;;;5029302;28;20065;-85
2022/01/15 07:24:14;;;;;;;141.27;10.93;;;1.20;99.00;;;;;;5018739;28;20187;-85
2022/01/15 07:26:40;;;;;;;89.25;8.70;;;1.20;99.00;;;;;;5024744;28;20059;-85
2022/01/15 07:29:13;;;;;;;168.25;11.70;;;1.20;99.00;;;;;;5030673;28;20040;-85
2022/01/15 07:31:39;;;;;;;152.52;10.02;;;1.30;99.00;;;;;;5027773;28;20018;-84
2022/01/15 07:34:04;;;;;;;121.90;10.65;;;1.20;99.00;;;;;;5010646;28;20038;-86
2022/01/15 07:36:30;;;;;;;133.82;10.75;;;1.20;99.00;;;;;;5025179;28;20029;-86
2022/01/15 07:38:56;;;;;;;106.88;11.27;;;1.20;99.00;;;;;;5025572;28;20037;-86
2022/01/15 07:41:22;;;;;;;78.93;10.00;;;1.20;99.00;;;;;;5023934;28;20033;-87
2022/01/15 07:43:48;;;;;;;158.52;12.05;;;1.30;99.00;;;;;;5025514;28;20112;-86
2022/01/15 07:46:16;;;;;;;141.05;11.63;;;1.30;99.00;;;;;;5026672;28;20180;-85
2022/01/15 07:48:41;;;;;;;168.07;14.48;;;1.40;99.00;;;;;;5015728;28;20030;-86
2022/01/15 07:51:07;;;;;;;178.38;17.35;;;1.40;99.00;;;;;;5013198;28;20050;-86
2022/01/15 07:53:33;;;;;;;115.95;14.68;;;1.40;99.00;;;;;;5025210;28;20017;-85
2022/01/15 07:55:59;;;;;;;153.23;14.52;;;1.40;99.00;;;;;;5015181;28;20152;-84
2022/01/15 07:58:24;;;;;;;141.45;13.35;;;1.40;99.00;;;;;;5019823;28;20086;-85
2022/01/15 08:00:50;;;;;;;136.25;11.32;;;1.50;99.00;;;;;;5007792;28;20041;-85
2022/01/15 08:03:16;;;;;;;140.73;12.52;;;1.50;99.00;;;;;;5010732;28;20026;-85
2022/01/15 08:05:41;;;;;;;154.30;11.95;;;1.50;99.00;;;;;;5022108;28;20087;-85
2022/01/15 08:08:06;;;;;;;96.47;10.60;;;1.60;99.00;;;;;;5023005;28;20044;-85
2022/01/15 08:10:32;;;;;;;148.38;11.68;;;1.50;99.00;;;;;;5026690;28;20030;-86
2022/01/15 08:12:58;;;;;;;175.68;12.23;;;1.60;98.90;;;;;;5025813;28;20034;-86
2022/01/15 08:15:25;;;;;;;109.47;10.93;;;1.60;99.00;;;;;;5010708;28;20022;-86
2022/01/15 08:17:51;;;;;;;127.90;11.50;;;1.60;98.90;;;;;;5022325;28;20034;-86
2022/01/15 08:20:17;;;;;;;168.57;12.30;;;1.60;98.90;;;;;;5025841;28;20397;-86
2022/01/15 08:22:45;;;;;;;92.85;10.60;;;1.70;98.90;;;;;;5027243;28;20512;-86
2022/01/15 08:25:16;;;;;;;146.30;11.68;;;1.70;98.90;;;;;;5027542;28;20030;-86
2022/01/15 08:27:41;;;;;;;;;;;1.70;98.90;;;;;;5026035;28;20041;-86
2022/01/15 08:30:08;;;;;;;137.55;11.50;;;1.70;98.90;;;;;;5017451;28;19905;-85
2022/01/15 08:32:37;;;;;;;130.65;11.48;;;1.80;98.90;;;;;;5029278;28;20017;-86
2022/01/15 08:35:03;;;;;;;131.25;10.65;;;1.80;98.90;;;;;;5021910;28;20112;-86
2022/01/15 08:37:31;;;;;;;159.00;11.85;;;1.90;98.90;;;;;;5018725;28;20851;-86
2022/01/15 08:39:57;;;;;;;195.10;12.48;;;1.90;98.90;;;;;;5025520;28;20490;-86
2022/01/15 08:42:22;;;;;;;156.85;12.73;;;1.90;98.80;;;;;;5012864;28;20030;-86
2022/01/15 08:44:48;;;;;;;158.13;11.57;;;1.90;98.80;;;;;;5028129;28;20056;-86
2022/01/15 08:47:13;;;;;;;137.18;10.57;;;1.90;98.80;;;;;;5024863;28;20083;-86
2022/01/15 08:49:39;;;;;;;123.85;10.48;;;2.00;98.80;;;;;;5020618;28;20046;-86
2022/01/15 08:52:05;;;;;;;148.45;11.05;;;2.00;98.80;;;;;;5013720;28;20121;-86
2022/01/15 08:54:31;;;;;;;126.95;10.98;;;2.10;98.80;;;;;;5025065;28;20137;-86
2022/01/15 08:56:57;;;;;;;146.05;9.77;;;2.00;98.80;;;;;;5019322;28;20025;-86
2022/01/15 08:59:27;;;;;;;152.40;9.52;;;2.00;98.80;;;;;;5020164;28;20041;-86
2022/01/15 09:01:56;;;;;;;143.88;11.00;;;2.00;98.80;;;;;;5024591;28;20422;-86
2022/01/15 09:04:22;;;;;;;172.13;11.35;;;2.10;98.80;;;;;;5019806;28;20030;-86
2022/01/15 09:06:50;;;;;;;185.25;10.68;;;2.10;98.80;;;;;;5018312;28;20045;-86
2022/01/15 09:09:16;;;;;;;165.52;9.55;;;1.90;98.70;;;;;;5023747;28;20032;-86
2022/01/15 09:11:41;;;;;;;187.63;10.93;;;2.00;98.70;;;;;;5011911;28;20030;-86
2022/01/15 09:14:07;;;;;;;204.30;11.10;;;2.10;98.80;;;;;;5023424;28;20065;-86
2022/01/15 09:16:32;;;;;;;192.65;10.25;;;2.00;98.70;;;;;;5020127;28;20030;-86
2022/01/15 09:18:58;;;;;;;154.65;9.45;;;2.00;98.70;;;;;;5015025;28;20408;-86
2022/01/15 09:21:30;;;;;;;174.02;9.32;;;2.10;98.70;;;;;;5021024;28;20124;-86
2022/01/15 09:23:55;;;;;;;255.18;11.88;;;2.30;98.80;;;;;;5018936;28;20029;-86
2022/01/15 09:26:23;;;;;;;163.63;8.85;;;2.20;98.70;;;;;;5022714;28;20029;-86
2022/01/15 09:31:34;;;;;;;222.60;9.05;;;2.20;98.60;;;;;;5024013;28;20147;-87
2022/01/15 09:34:00;;;;;;;223.25;10.15;;;2.10;98.50;;;;;;5024716;28;20489;-86
2022/01/15 09:36:26;;;;;;;271.25;11.40;;;2.20;98.60;;;;;;5012929;28;20079;-87
2022/01/15 09:38:51;;;;;;;223.77;11.57;;;2.30;98.70;;;;;;5011780;28;20022;-87
2022/01/15 09:41:18;;;;;;;194.90;9.50;;;2.40;98.70;;;;;;5025970;28;20116;-87
2022/01/15 09:43:44;;;;;;;159.30;9.20;;;2.40;98.60;;;;;;5018529;28;20145;-87
2022/01/15 09:46:13;;;;;;;189.63;10.27;;;2.40;98.60;;;;;;5025048;28;20098;-87
2022/01/15 09:48:39;;;;;;;191.55;10.13;;;2.50;98.60;;;;;;5018037;28;20083;-86
2022/01/15 09:51:05;;;;;;;130.77;8.38;;;2.50;98.60;;;;;;5020642;28;20038;-86
2022/01/15 09:53:33;;;;;;;204.27;10.10;;;2.60;98.60;;;;;;5020415;28;20095;-87
2022/01/15 09:55:59;;;;;;;150.77;9.55;;;2.60;98.50;;;;;;5020556;28;20169;-87
2022/01/15 09:58:25;;;;;;;171.50;8.95;;;2.60;98.50;;;;;;5018105;28;20413;-87
2022/01/15 10:00:51;;;;;;;125.18;7.75;;;2.60;98.40;;;;;;5028893;28;20040;-88
2022/01/15 10:03:17;;;;;;;96.07;8.05;;;2.70;98.50;;;;;;5025445;28;20034;-88
2022/01/15 10:05:43;;;;;;;46.38;6.78;;;2.70;98.40;;;;;;5012403;28;20401;-88
2022/01/15 10:08:12;;;;;;;93.75;7.30;;;2.90;98.50;;;;;;5010088;28;20079;-88
2022/01/15 10:10:41;;;;;;;53.70;6.95;;;2.90;98.50;;;;;;5017502;28;20026;-88
2022/01/15 10:13:16;;;;;;;94.60;7.80;;;3.00;98.50;;;;;;5016186;28;20030;-88
2022/01/15 10:15:44;;;;;;;38.35;6.63;;;3.30;98.60;;;;;;5022197;28;20057;-88
2022/01/15 10:18:22;;;;;;;110.70;8.10;;;3.30;98.50;;;;;;5014061;28;20123;-88
2022/01/15 10:20:47;;;;;;;77.97;7.63;;;3.40;98.40;;;;;;5011057;28;20034;-88
2022/01/15 10:23:21;;;;;;;45.35;6.95;;;3.40;98.20;;;;;;5032347;28;20036;-88
2022/01/15 10:26:10;;;;;;;31.90;6.18;;;3.40;98.30;;;;;;5027660;28;20057;-88
2022/01/15 10:28:57;;;;;;;40.88;6.30;;;3.50;98.30;;;;;;5018841;28;20053;-88
2022/01/15 10:31:26;;;;;;;64.80;7.28;;;3.40;98.10;;;;;;5021853;28;20030;-88
2022/01/15 10:33:51;;;;;;;77.55;6.93;;;3.40;98.10;;;;;;5020155;28;20021;-88
2022/01/15 10:36:25;;;;;;;65.07;6.13;;;3.50;98.30;;;;;;5023247;28;20036;-88
2022/01/15 10:38:51;;;;;;;67.07;6.88;;;3.50;98.10;;;;;;5019114;28;20044;-88
2022/01/15 10:41:50;;;;;;;76.32;7.03;;;3.50;98.20;;;;;;5027447;28;20029;-88
2022/01/15 10:44:27;;;;;;;23.85;6.35;;;3.30;97.60;;;;;;5010191;28;20053;-88
2022/01/15 10:47:02;;;;;;;24.55;5.75;;;3.60;98.20;;;;;;5023874;28;22101;-88
2022/01/15 10:49:27;;;;;;;27.90;6.07;;;3.70;98.20;;;;;;5043684;28;20129;-88
2022/01/15 10:52:10;;;;;;;24.90;5.85;;;3.70;98.00;;;;;;5019711;28;20113;-88
2022/01/15 10:54:54;;;;;;;76.43;6.85;;;3.80;98.00;;;;;;5026454;28;20026;-88
2022/01/15 10:57:24;;;;;;;30.98;6.07;;;3.80;98.00;;;;;;5023149;28;20096;-87
2022/01/15 11:00:11;;;;;;;29.10;5.82;;;3.80;97.90;;;;;;5020995;28;20060;-88
2022/01/15 11:02:41;;;;;;;30.15;6.60;;;3.80;97.80;;;;;;5025249;28;20116;-88
2022/01/15 11:05:23;;;;;;;36.85;6.47;;;3.80;97.80;;;;;;5011517;28;20061;-88
2022/01/15 11:07:49;;;;;;;24.23;5.97;;;3.80;97.70;;;;;;5027117;28;20030;-87
2022/01/15 11:10:15;;;;;;;27.10;6.03;;;3.80;97.70;;;;;;5045579;28;20033;-87
2022/01/15 11:12:41;;;;;;;23.63;6.10;;;3.70;97.50;;;;;;5030812;28;20029;-87
2022/01/15 11:15:08;;;;;;;16.08;6.00;;;3.80;97.70;;;;;;5030992;28;20363;-87
2022/01/15 11:17:34;;;;;;;13.55;5.70;;;3.90;97.80;;;;;;5042389;28;20091;-87
2022/01/15 11:20:04;;;;;;;16.05;6.45;;;3.80;97.50;;;;;;5029703;28;20465;-87
2022/01/15 11:22:32;;;;;;;14.43;5.97;;;3.90;97.60;;;;;;5019947;28;20532;-87
2022/01/15 11:25:00;;;;;;;17.80;6.22;;;3.80;97.50;;;;;;5025922;28;20033;-87
2022/01/15 11:27:29;;;;;;;14.48;6.85;;;4.00;97.70;;;;;;5028249;28;20444;-87
2022/01/15 11:29:58;;;;;;;19.35;7.18;;;4.10;97.60;;;;;;5030581;28;20033;-87
2022/01/15 11:32:25;;;;;;;13.38;7.03;;;4.10;97.60;;;;;;5028256;28;20029;-87
2022/01/15 11:35:05;;;;;;;15.82;6.70;;;4.00;97.20;;;;;;5023972;28;20036;-87
2022/01/15 11:37:53;;;;;;;22.30;8.43;;;4.10;97.50;;;;;;5029739;28;20033;-87
2022/01/15 11:40:43;;;;;;;12.20;7.10;;;4.10;97.20;;;;;;5027961;28;20039;-87
2022/01/15 11:43:27;;;;;;;15.18;7.93;;;4.00;97.20;;;;;;5021983;28;20025;-87
2022/01/15 11:45:57;;;;;;;15.75;6.63;;;4.10;97.40;;;;;;5017576;28;20569;-87
2022/01/15 11:48:29;;;;;;;16.67;7.40;;;4.00;97.20;;;;;;5027506;28;20492;-87
2022/01/15 11:51:13;;;;;;;14.80;7.07;;;4.10;97.30;;;;;;5021583;28;20037;-87
2022/01/15 11:53:51;;;;;;;19.45;6.82;;;4.00;97.20;;;;;;5027167;28;20444;-87
2022/01/15 11:56:18;;;;;;;18.83;6.68;;;4.10;97.20;;;;;;5029558;28;20029;-87
2022/01/15 11:58:44;;;;;;;12.65;7.00;;;4.10;97.20;;;;;;5027899;28;20101;-86
2022/01/15 12:01:41;;;;;;;17.40;7.22;;;4.10;97.10;;;;;;5028121;28;20481;-86
2022/01/15 12:04:31;;;;;;;18.10;6.75;;;4.10;97.10;;;;;;5017405;28;20040;-86
2022/01/15 12:07:05;;;;;;;15.48;6.97;;;4.10;97.00;;;;;;5027027;28;20431;-86
2022/01/15 12:09:38;;;;;;;18.15;6.95;;;4.20;97.00;;;;;;5024676;28;20122;-86
2022/01/15 12:12:31;;;;;;;14.18;7.00;;;4.20;96.90;;;;;;5040279;28;20026;-86
2022/01/15 12:14:58;;;;;;;21.40;7.28;;;4.30;97.00;;;;;;5020736;28;20029;-86
2022/01/15 12:17:44;;;;;;;13.18;6.82;;;4.50;97.10;;;;;;5027745;28;20022;-87
2022/01/15 12:20:21;;;;;;;13.70;6.63;;;4.60;97.20;;;;;;5021789;28;20039;-86
2022/01/15 12:22:51;;;;;;;17.33;6.97;;;4.60;97.00;;;;;;5027685;28;20504;-87
2022/01/15 12:25:17;;;;;;;16.85;6.75;;;4.60;96.90;;;;;;5023488;28;20088;-87
2022/01/15 12:27:44;;;;;;;19.88;7.32;;;4.70;97.00;;;;;;5017461;28;20030;-87
2022/01/15 12:30:46;;;;;;;17.63;7.70;;;4.60;96.60;;;;;;5023414;28;20068;-87
2022/01/15 12:33:13;;;;;;;15.45;7.88;;;4.60;96.80;;;;;;5016883;28;20030;-86
2022/01/15 12:35:42;;;;;;;17.13;7.75;;;4.70;96.80;;;;;;5022314;28;20032;-87
2022/01/15 12:38:16;;;;;;;15.05;7.90;;;4.70;96.70;;;;;;5025769;28;20079;-87
2022/01/15 12:40:47;;;;;;;15.73;8.35;;;4.70;96.40;;;;;;5024542;28;20047;-86
2022/01/15 12:43:27;;;;;;;19.67;9.05;;;4.70;96.30;;;;;;5025975;28;20543;-87
2022/01/15 12:45:56;;;;;;;20.50;8.88;;;4.70;96.00;;;;;;5018853;28;20033;-88
2022/01/15 12:48:25;;;;;;;18.25;7.85;;;4.80;96.00;;;;;;5017228;28;20026;-87
2022/01/15 12:50:53;;;;;;;16.70;7.93;;;4.80;95.90;;;;;;5015111;28;20073;-87
2022/01/15 12:53:22;;;;;;;16.95;8.52;;;4.80;95.50;;;;;;5021532;28;20022;-87
2022/01/15 12:55:48;;;;;;;20.83;8.23;;;4.90;95.80;;;;;;5016170;28;20037;-87
2022/01/15 12:58:20;;;;;;;20.63;8.48;;;4.80;95.40;;;;;;5022192;28;20120;-87
2022/01/15 13:00:54;;;;;;;17.45;8.48;;;4.90;95.40;;;;;;5018219;28;20029;-87
2022/01/15 13:03:25;;;;;;;19.67;8.77;;;5.10;95.60;;;;;;5029005;28;20120;-87
2022/01/15 13:05:59;;;;;;;18.27;8.80;;;5.20;95.40;;;;;;5025842;28;20025;-87
2022/01/15 13:08:32;;;;;;;17.80;9.00;;;5.30;95.40;;;;;;5025325;28;20034;-87